sensor_id;sensor_type;location;lat;lon;timestamp;temperature;humidity
8402;DHT22;4238;48.404;9.498;2023-05-07T04:01:12;10.30;99.90
8402;DHT22;4238;48.404;9.498;2023-05-07T04:03:39;10.30;99.90
8402;DHT22;4238;48.404;9.498;2023-05-07T04:06:06;10.20;99.90
8402;DHT22;4238;48.404;9.498;2023-05-07T04:08:33;10.10;99.90
8402;DHT22;4238;48.404;9.498;2023-05-07T04:11:01;10.10;99.90
8402;DHT22;4238;48.404;9.498;2023-05-07T04:13:27;10.10;99.90
8402;DHT22;4238;48.404;9.498;2023-05-07T04:15:56;10.20;99.90
8402;DHT22;4238;48.404;9.498;2023-05-07T04:18:24;10.20;99.90
8402;DHT22;4238;48.404;9.498;2023-05-07T04:20:51;10.30;99.90
8402;DHT22;4238;48.404;9.498;2023-05-07T04:23:18;10.40;99.90
8402;DHT22;4238;48.404;9.498;2023-05-07T04:25:45;10.40;99.90
8402;DHT22;4238;48.404;9.498;2023-05-07T04:28:12;10.50;99.90
8402;DHT22;4238;48.404;9.498;2023-05-07T04:30:39;10.50;99.90
8402;DHT22;4238;48.404;9.498;2023-05-07T04:33:06;10.60;99.90
8402;DHT22;4238;48.404;9.498;2023-05-07T04:35:35;10.60;99.90
8402;DHT22;4238;48.404;9.498;2023-05-07T04:38:02;10.60;99.90
8402;DHT22;4238;48.404;9.498;2023-05-07T04:40:29;10.60;99.90
8402;DHT22;4238;48.404;9.498;2023-05-07T04:42:56;10.70;99.90
8402;DHT22;4238;48.404;9.498;2023-05-07T04:45:23;10.70;99.90
8402;DHT22;4238;48.404;9.498;2023-05-07T04:47:49;10.70;99.90
8402;DHT22;4238;48.404;9.498;2023-05-07T04:50:16;10.90;99.90
8402;DHT22;4238;48.404;9.498;2023-05-07T04:52:46;11.00;99.90
8402;DHT22;4238;48.404;9.498;2023-05-07T04:55:13;10.90;99.90
8402;DHT22;4238;48.404;9.498;2023-05-07T04:57:40;11.10;99.90
8402;DHT22;4238;48.404;9.498;2023-05-07T05:00:08;11.20;99.90
8402;DHT22;4238;48.404;9.498;2023-05-07T05:02:35;11.40;99.90
8402;DHT22;4238;48.404;9.498;2023-05-07T05:05:03;11.70;99.90
8402;DHT22;4238;48.404;9.498;2023-05-07T05:07:30;12.00;99.90
8402;DHT22;4238;48.404;9.498;2023-05-07T05:09:58;12.30;99.90
8402;DHT22;4238;48.404;9.498;2023-05-07T05:12:25;12.50;99.90
8402;DHT22;4238;48.404;9.498;2023-05-07T05:14:52;12.70;96.50
8402;DHT22;4238;48.404;9.498;2023-05-07T05:17:19;12.90;91.80
8402;DHT22;4238;48.404;9.498;2023-05-07T05:19:46;13.00;90.30
8402;DHT22;4238;48.404;9.498;2023-05-07T05:22:13;13.10;90.80
8402;DHT22;4238;48.404;9.498;2023-05-07T05:24:40;13.10;86.30
8402;DHT22;4238;48.404;9.498;2023-05-07T05:27:08;13.10;90.10
8402;DHT22;4238;48.404;9.498;2023-05-07T05:29:35;13.10;90.00
8402;DHT22;4238;48.404;9.498;2023-05-07T05:32:03;13.30;88.40
8402;DHT22;4238;48.404;9.498;2023-05-07T05:34:29;13.50;80.40
8402;DHT22;4238;48.404;9.498;2023-05-07T05:36:59;13.70;68.20
8402;DHT22;4238;48.404;9.498;2023-05-07T05:39:26;13.90;70.60
8402;DHT22;4238;48.404;9.498;2023-05-07T05:41:53;14.10;61.40
8402;DHT22;4238;48.404;9.498;2023-05-07T05:44:21;14.20;54.60
8402;DHT22;4238;48.404;9.498;2023-05-07T05:46:48;14.50;48.10
8402;DHT22;4238;48.404;9.498;2023-05-07T05:49:16;14.70;29.30
8402;DHT22;4238;48.404;9.498;2023-05-07T05:51:43;15.00;15.20
8402;DHT22;4238;48.404;9.498;2023-05-07T05:54:10;15.30;1.00
8402;DHT22;4238;48.404;9.498;2023-05-07T05:56:37;15.20;6.90
8402;DHT22;4238;48.404;9.498;2023-05-07T05:59:04;15.50;1.00
8402;DHT22;4238;48.404;9.498;2023-05-07T06:01:32;15.80;1.00
8402;DHT22;4238;48.404;9.498;2023-05-07T06:03:59;15.90;1.00
8402;DHT22;4238;48.404;9.498;2023-05-07T06:06:26;16.00;1.00
8402;DHT22;4238;48.404;9.498;2023-05-07T06:08:53;16.20;1.00
8402;DHT22;4238;48.404;9.498;2023-05-07T06:11:20;16.10;1.00
8402;DHT22;4238;48.404;9.498;2023-05-07T06:13:47;16.10;1.00
8402;DHT22;4238;48.404;9.498;2023-05-07T06:16:14;16.20;1.00
8402;DHT22;4238;48.404;9.498;2023-05-07T06:18:43;16.30;1.00
8402;DHT22;4238;48.404;9.498;2023-05-07T06:21:11;16.50;1.00
8402;DHT22;4238;48.404;9.498;2023-05-07T06:23:38;16.60;1.00
8402;DHT22;4238;48.404;9.498;2023-05-07T06:26:06;16.60;1.00
8402;DHT22;4238;48.404;9.498;2023-05-07T06:28:33;16.70;1.00
8402;DHT22;4238;48.404;9.498;2023-05-07T06:31:11;16.90;1.00
8402;DHT22;4238;48.404;9.498;2023-05-07T06:33:38;17.00;1.00
8402;DHT22;4238;48.404;9.498;2023-05-07T06:36:07;17.00;1.00
8402;DHT22;4238;48.404;9.498;2023-05-07T06:38:34;17.10;1.00
8402;DHT22;4238;48.404;9.498;2023-05-07T06:41:01;17.30;1.00
8402;DHT22;4238;48.404;9.498;2023-05-07T06:43:28;17.40;1.00
8402;DHT22;4238;48.404;9.498;2023-05-07T06:45:55;17.40;1.00
8402;DHT22;4238;48.404;9.498;2023-05-07T06:48:21;17.40;99.90
8402;DHT22;4238;48.404;9.498;2023-05-07T06:50:48;17.50;1.00
8402;DHT22;4238;48.404;9.498;2023-05-07T06:53:17;17.60;1.00
8402;DHT22;4238;48.404;9.498;2023-05-07T06:55:44;17.50;1.00
8402;DHT22;4238;48.404;9.498;2023-05-07T06:58:11;17.60;1.00
8402;DHT22;4238;48.404;9.498;2023-05-07T07:00:37;17.80;1.00
8402;DHT22;4238;48.404;9.498;2023-05-07T07:03:04;18.10;1.00
8402;DHT22;4238;48.404;9.498;2023-05-07T07:05:31;18.40;99.90
8402;DHT22;4238;48.404;9.498;2023-05-07T07:07:58;18.40;1.00
8402;DHT22;4238;48.404;9.498;2023-05-07T07:10:26;18.10;97.70
8402;DHT22;4238;48.404;9.498;2023-05-07T07:12:53;18.20;1.00
8402;DHT22;4238;48.404;9.498;2023-05-07T07:15:20;18.50;99.90
8402;DHT22;4238;48.404;9.498;2023-05-07T07:17:48;18.40;99.90
8402;DHT22;4238;48.404;9.498;2023-05-07T07:20:14;18.40;1.00
8402;DHT22;4238;48.404;9.498;2023-05-07T07:22:41;18.30;1.00
8402;DHT22;4238;48.404;9.498;2023-05-07T07:25:09;18.50;99.90
8402;DHT22;4238;48.404;9.498;2023-05-07T07:27:38;18.60;1.00
8402;DHT22;4238;48.404;9.498;2023-05-07T07:30:06;18.60;1.00
8402;DHT22;4238;48.404;9.498;2023-05-07T07:32:34;18.70;1.00
8402;DHT22;4238;48.404;9.498;2023-05-07T07:35:01;18.80;1.00
8402;DHT22;4238;48.404;9.498;2023-05-07T07:37:28;19.00;1.00
8402;DHT22;4238;48.404;9.498;2023-05-07T07:39:55;18.90;99.90
8402;DHT22;4238;48.404;9.498;2023-05-07T07:42:22;18.90;1.00
8402;DHT22;4238;48.404;9.498;2023-05-07T07:44:50;18.50;1.00
8402;DHT22;4238;48.404;9.498;2023-05-07T07:47:17;18.70;99.90
8402;DHT22;4238;48.404;9.498;2023-05-07T07:49:44;19.10;99.90
8402;DHT22;4238;48.404;9.498;2023-05-07T07:52:11;19.40;1.00
8402;DHT22;4238;48.404;9.498;2023-05-07T07:54:38;20.00;1.00
8402;DHT22;4238;48.404;9.498;2023-05-07T07:57:05;20.20;1.00
8402;DHT22;4238;48.404;9.498;2023-05-07T07:59:32;20.60;99.90
8402;DHT22;4238;48.404;9.498;2023-05-07T08:02:00;20.40;1.00
8402;DHT22;4238;48.404;9.498;2023-05-07T08:04:27;20.50;1.00
8402;DHT22;4238;48.404;9.498;2023-05-07T08:06:54;20.70;1.00
8402;DHT22;4238;48.404;9.498;2023-05-07T08:09:21;20.80;1.00
8402;DHT22;4238;48.404;9.498;2023-05-07T08:11:48;20.80;99.90
8402;DHT22;4238;48.404;9.498;2023-05-07T08:14:15;20.70;99.90
8402;DHT22;4238;48.404;9.498;2023-05-07T08:16:42;21.00;1.00
8402;DHT22;4238;48.404;9.498;2023-05-07T08:19:10;21.20;1.00
8402;DHT22;4238;48.404;9.498;2023-05-07T08:21:39;20.90;99.90
8402;DHT22;4238;48.404;9.498;2023-05-07T08:24:06;20.60;1.00
8402;DHT22;4238;48.404;9.498;2023-05-07T08:26:33;21.00;1.00
8402;DHT22;4238;48.404;9.498;2023-05-07T08:29:01;20.80;1.00
8402;DHT22;4238;48.404;9.498;2023-05-07T08:31:28;20.60;1.00
8402;DHT22;4238;48.404;9.498;2023-05-07T08:33:55;20.80;1.00
8402;DHT22;4238;48.404;9.498;2023-05-07T08:36:23;21.20;29.10
8402;DHT22;4238;48.404;9.498;2023-05-07T08:38:51;21.50;1.00
8402;DHT22;4238;48.404;9.498;2023-05-07T08:41:18;21.50;99.90
8402;DHT22;4238;48.404;9.498;2023-05-07T08:43:48;21.70;99.90
8402;DHT22;4238;48.404;9.498;2023-05-07T08:46:17;22.10;99.90
8402;DHT22;4238;48.404;9.498;2023-05-07T08:48:45;22.50;1.00
8402;DHT22;4238;48.404;9.498;2023-05-07T08:51:16;22.40;1.00
8402;DHT22;4238;48.404;9.498;2023-05-07T08:53:45;22.50;1.00
8402;DHT22;4238;48.404;9.498;2023-05-07T08:56:14;22.40;1.00
8402;DHT22;4238;48.404;9.498;2023-05-07T08:58:42;22.70;1.00
8402;DHT22;4238;48.404;9.498;2023-05-07T09:01:12;23.00;99.90
8402;DHT22;4238;48.404;9.498;2023-05-07T09:03:40;23.00;99.90
8402;DHT22;4238;48.404;9.498;2023-05-07T09:06:08;23.20;99.90
8402;DHT22;4238;48.404;9.498;2023-05-07T09:08:35;22.80;99.90
8402;DHT22;4238;48.404;9.498;2023-05-07T09:11:04;23.30;99.90
8402;DHT22;4238;48.404;9.498;2023-05-07T09:13:31;23.40;99.90
8402;DHT22;4238;48.404;9.498;2023-05-07T09:15:58;23.50;99.90
8402;DHT22;4238;48.404;9.498;2023-05-07T09:18:25;23.50;99.90
8402;DHT22;4238;48.404;9.498;2023-05-07T09:20:52;23.40;99.90
8402;DHT22;4238;48.404;9.498;2023-05-07T09:23:20;22.70;99.90
8402;DHT22;4238;48.404;9.498;2023-05-07T09:25:47;22.50;99.90
8402;DHT22;4238;48.404;9.498;2023-05-07T09:28:15;23.00;99.90
8402;DHT22;4238;48.404;9.498;2023-05-07T09:30:42;23.30;99.90
8402;DHT22;4238;48.404;9.498;2023-05-07T09:33:09;23.30;99.90
8402;DHT22;4238;48.404;9.498;2023-05-07T09:35:37;23.20;99.90
8402;DHT22;4238;48.404;9.498;2023-05-07T09:38:04;23.30;99.90
8402;DHT22;4238;48.404;9.498;2023-05-07T09:40:31;22.90;99.90
8402;DHT22;4238;48.404;9.498;2023-05-07T09:43:08;22.10;99.90
8402;DHT22;4238;48.404;9.498;2023-05-07T09:45:37;22.40;99.90
8402;DHT22;4238;48.404;9.498;2023-05-07T09:48:05;22.80;99.90
8402;DHT22;4238;48.404;9.498;2023-05-07T09:50:36;22.50;99.90
8402;DHT22;4238;48.404;9.498;2023-05-07T09:53:04;22.50;99.90
8402;DHT22;4238;48.404;9.498;2023-05-07T09:55:31;22.20;99.90
8402;DHT22;4238;48.404;9.498;2023-05-07T09:57:59;22.50;99.90
8402;DHT22;4238;48.404;9.498;2023-05-07T10:00:29;22.50;99.90
8402;DHT22;4238;48.404;9.498;2023-05-07T10:02:58;22.90;99.90
8402;DHT22;4238;48.404;9.498;2023-05-07T10:05:26;23.10;99.90
8402;DHT22;4238;48.404;9.498;2023-05-07T10:07:54;23.20;99.90
8402;DHT22;4238;48.404;9.498;2023-05-07T10:10:24;22.30;99.90
8402;DHT22;4238;48.404;9.498;2023-05-07T10:12:51;22.90;99.90
8402;DHT22;4238;48.404;9.498;2023-05-07T10:15:18;23.10;99.90
8402;DHT22;4238;48.404;9.498;2023-05-07T10:17:46;23.50;95.30
8402;DHT22;4238;48.404;9.498;2023-05-07T10:20:16;23.40;60.90
8402;DHT22;4238;48.404;9.498;2023-05-07T10:22:47;23.40;96.40
8402;DHT22;4238;48.404;9.498;2023-05-07T10:25:17;23.50;87.90
8402;DHT22;4238;48.404;9.498;2023-05-07T10:27:46;23.40;88.90
8402;DHT22;4238;48.404;9.498;2023-05-07T10:30:23;23.70;1.00
8402;DHT22;4238;48.404;9.498;2023-05-07T10:32:55;23.60;95.40
8402;DHT22;4238;48.404;9.498;2023-05-07T10:35:27;23.80;1.00
8402;DHT22;4238;48.404;9.498;2023-05-07T10:37:57;23.80;27.60
8402;DHT22;4238;48.404;9.498;2023-05-07T10:40:24;23.80;1.00
8402;DHT22;4238;48.404;9.498;2023-05-07T10:42:55;23.60;1.00
8402;DHT22;4238;48.404;9.498;2023-05-07T10:45:23;23.10;1.00
8402;DHT22;4238;48.404;9.498;2023-05-07T10:48:06;22.50;28.40
8402;DHT22;4238;48.404;9.498;2023-05-07T10:50:35;22.40;99.90
8402;DHT22;4238;48.404;9.498;2023-05-07T10:53:24;22.20;99.90
8402;DHT22;4238;48.404;9.498;2023-05-07T10:56:25;22.10;99.90
8402;DHT22;4238;48.404;9.498;2023-05-07T10:58:55;22.10;99.90
8402;DHT22;4238;48.404;9.498;2023-05-07T11:01:50;22.10;99.90
8402;DHT22;4238;48.404;9.498;2023-05-07T11:04:18;22.30;99.90
8402;DHT22;4238;48.404;9.498;2023-05-07T11:07:28;22.70;99.90
8402;DHT22;4238;48.404;9.498;2023-05-07T11:10:05;22.90;99.90
8402;DHT22;4238;48.404;9.498;2023-05-07T11:12:53;23.10;99.90
8402;DHT22;4238;48.404;9.498;2023-05-07T11:15:41;22.90;29.50
8402;DHT22;4238;48.404;9.498;2023-05-07T11:18:08;22.60;55.20
8402;DHT22;4238;48.404;9.498;2023-05-07T11:20:50;22.10;99.90
8402;DHT22;4238;48.404;9.498;2023-05-07T11:26:44;22.00;99.90
8402;DHT22;4238;48.404;9.498;2023-05-07T11:29:13;22.20;99.90
8402;DHT22;4238;48.404;9.498;2023-05-07T11:31:40;22.50;99.90
8402;DHT22;4238;48.404;9.498;2023-05-07T11:34:08;22.30;99.90
8402;DHT22;4238;48.404;9.498;2023-05-07T11:36:36;22.10;98.10
8402;DHT22;4238;48.404;9.498;2023-05-07T11:39:26;21.90;99.90
8402;DHT22;4238;48.404;9.498;2023-05-07T11:41:55;21.80;99.90
8402;DHT22;4238;48.404;9.498;2023-05-07T11:44:22;21.40;99.90
8402;DHT22;4238;48.404;9.498;2023-05-07T11:46:49;21.40;99.90
8402;DHT22;4238;48.404;9.498;2023-05-07T11:49:17;21.40;99.90
8402;DHT22;4238;48.404;9.498;2023-05-07T11:51:44;21.40;99.90
8402;DHT22;4238;48.404;9.498;2023-05-07T11:54:15;21.20;99.90
8402;DHT22;4238;48.404;9.498;2023-05-07T11:56:43;21.10;99.90
8402;DHT22;4238;48.404;9.498;2023-05-07T11:59:12;20.80;99.90
8402;DHT22;4238;48.404;9.498;2023-05-07T12:01:38;20.80;99.90
8402;DHT22;4238;48.404;9.498;2023-05-07T12:04:05;20.80;99.90
8402;DHT22;4238;48.404;9.498;2023-05-07T12:06:36;20.70;99.90
8402;DHT22;4238;48.404;9.498;2023-05-07T12:09:04;20.60;99.90
8402;DHT22;4238;48.404;9.498;2023-05-07T12:11:36;20.70;1.00
8402;DHT22;4238;48.404;9.498;2023-05-07T12:14:05;20.70;1.00
8402;DHT22;4238;48.404;9.498;2023-05-07T12:16:33;20.80;1.00
8402;DHT22;4238;48.404;9.498;2023-05-07T12:19:01;20.90;1.00
8402;DHT22;4238;48.404;9.498;2023-05-07T12:21:28;20.80;1.00
8402;DHT22;4238;48.404;9.498;2023-05-07T12:23:56;20.80;1.00
8402;DHT22;4238;48.404;9.498;2023-05-07T12:26:23;20.80;1.00
8402;DHT22;4238;48.404;9.498;2023-05-07T12:28:50;20.90;11.30
8402;DHT22;4238;48.404;9.498;2023-05-07T12:31:17;20.80;1.00
8402;DHT22;4238;48.404;9.498;2023-05-07T12:33:46;20.80;1.00
8402;DHT22;4238;48.404;9.498;2023-05-07T12:36:13;20.70;1.00
8402;DHT22;4238;48.404;9.498;2023-05-07T12:38:40;20.60;56.50
8402;DHT22;4238;48.404;9.498;2023-05-07T12:41:08;20.70;24.40
8402;DHT22;4238;48.404;9.498;2023-05-07T12:43:35;20.70;92.50
8402;DHT22;4238;48.404;9.498;2023-05-07T12:46:04;20.60;99.90
8402;DHT22;4238;48.404;9.498;2023-05-07T12:48:31;20.40;99.90
8402;DHT22;4238;48.404;9.498;2023-05-07T12:51:00;20.40;1.00
8402;DHT22;4238;48.404;9.498;2023-05-07T12:53:29;20.40;99.90
8402;DHT22;4238;48.404;9.498;2023-05-07T12:55:57;20.40;1.00
8402;DHT22;4238;48.404;9.498;2023-05-07T12:58:26;20.40;1.00
8402;DHT22;4238;48.404;9.498;2023-05-07T13:00:55;20.40;99.90
8402;DHT22;4238;48.404;9.498;2023-05-07T13:03:25;20.30;99.90
8402;DHT22;4238;48.404;9.498;2023-05-07T13:05:53;20.10;99.90
8402;DHT22;4238;48.404;9.498;2023-05-07T13:08:26;20.20;1.00
8402;DHT22;4238;48.404;9.498;2023-05-07T13:10:53;19.90;6.60
8402;DHT22;4238;48.404;9.498;2023-05-07T13:13:21;19.90;99.90
8402;DHT22;4238;48.404;9.498;2023-05-07T13:15:48;20.00;99.90
8402;DHT22;4238;48.404;9.498;2023-05-07T13:18:15;19.80;99.90
8402;DHT22;4238;48.404;9.498;2023-05-07T13:20:41;19.70;99.90
8402;DHT22;4238;48.404;9.498;2023-05-07T13:23:08;19.70;1.00
8402;DHT22;4238;48.404;9.498;2023-05-07T13:25:36;19.70;1.00
8402;DHT22;4238;48.404;9.498;2023-05-07T13:28:04;19.60;1.00
8402;DHT22;4238;48.404;9.498;2023-05-07T13:30:31;19.60;99.90
8402;DHT22;4238;48.404;9.498;2023-05-07T13:32:57;19.60;99.90
8402;DHT22;4238;48.404;9.498;2023-05-07T13:35:24;19.60;1.00
8402;DHT22;4238;48.404;9.498;2023-05-07T13:37:51;19.50;1.00
8402;DHT22;4238;48.404;9.498;2023-05-07T13:40:20;19.30;99.90
8402;DHT22;4238;48.404;9.498;2023-05-07T13:42:48;19.20;99.90
8402;DHT22;4238;48.404;9.498;2023-05-07T13:45:16;19.20;1.00
8402;DHT22;4238;48.404;9.498;2023-05-07T13:47:43;19.10;1.00
8402;DHT22;4238;48.404;9.498;2023-05-07T13:50:11;19.00;1.00
8402;DHT22;4238;48.404;9.498;2023-05-07T13:52:40;18.80;1.00
8402;DHT22;4238;48.404;9.498;2023-05-07T13:55:09;18.80;1.00
8402;DHT22;4238;48.404;9.498;2023-05-07T13:57:36;18.70;1.00
8402;DHT22;4238;48.404;9.498;2023-05-07T14:00:06;18.80;1.00
8402;DHT22;4238;48.404;9.498;2023-05-07T14:02:33;18.80;1.00
8402;DHT22;4238;48.404;9.498;2023-05-07T14:04:59;18.60;1.00
8402;DHT22;4238;48.404;9.498;2023-05-07T14:07:26;18.10;1.00
8402;DHT22;4238;48.404;9.498;2023-05-07T14:09:54;17.70;1.00
8402;DHT22;4238;48.404;9.498;2023-05-07T14:12:21;17.30;8.60
8402;DHT22;4238;48.404;9.498;2023-05-07T14:14:47;17.10;22.40
8402;DHT22;4238;48.404;9.498;2023-05-07T14:17:17;16.80;34.00
8402;DHT22;4238;48.404;9.498;2023-05-07T14:19:44;16.50;56.90
8402;DHT22;4238;48.404;9.498;2023-05-07T14:22:12;16.30;67.40
8402;DHT22;4238;48.404;9.498;2023-05-07T14:24:39;16.00;91.50
8402;DHT22;4238;48.404;9.498;2023-05-07T14:27:06;15.80;99.90
8402;DHT22;4238;48.404;9.498;2023-05-07T14:29:33;15.70;99.90
8402;DHT22;4238;48.404;9.498;2023-05-07T14:32:01;15.50;99.90
8402;DHT22;4238;48.404;9.498;2023-05-07T14:34:30;15.40;99.90
8402;DHT22;4238;48.404;9.498;2023-05-07T14:36:59;15.40;99.90
8402;DHT22;4238;48.404;9.498;2023-05-07T14:39:27;15.20;99.90
8402;DHT22;4238;48.404;9.498;2023-05-07T14:41:53;15.10;99.90
8402;DHT22;4238;48.404;9.498;2023-05-07T14:44:21;15.00;99.90
8402;DHT22;4238;48.404;9.498;2023-05-07T14:46:48;15.00;99.90
8402;DHT22;4238;48.404;9.498;2023-05-07T14:49:15;14.90;99.90
8402;DHT22;4238;48.404;9.498;2023-05-07T14:51:45;14.90;99.90
8402;DHT22;4238;48.404;9.498;2023-05-07T14:54:12;14.80;99.90
8402;DHT22;4238;48.404;9.498;2023-05-07T14:56:39;14.80;99.90
8402;DHT22;4238;48.404;9.498;2023-05-07T14:59:07;14.80;99.90
8402;DHT22;4238;48.404;9.498;2023-05-07T15:01:34;14.70;99.90
8402;DHT22;4238;48.404;9.498;2023-05-07T15:04:03;14.70;99.90
8402;DHT22;4238;48.404;9.498;2023-05-07T15:06:30;14.60;99.90
8402;DHT22;4238;48.404;9.498;2023-05-07T15:08:58;14.60;99.90
8402;DHT22;4238;48.404;9.498;2023-05-07T15:11:25;14.70;99.90
8402;DHT22;4238;48.404;9.498;2023-05-07T15:13:52;14.60;99.90
8402;DHT22;4238;48.404;9.498;2023-05-07T15:16:19;14.30;99.90
8402;DHT22;4238;48.404;9.498;2023-05-07T15:18:46;14.20;99.90
8402;DHT22;4238;48.404;9.498;2023-05-07T15:21:13;14.00;99.90
8402;DHT22;4238;48.404;9.498;2023-05-07T15:23:40;13.90;99.90
8402;DHT22;4238;48.404;9.498;2023-05-07T15:26:09;13.90;99.90
8402;DHT22;4238;48.404;9.498;2023-05-07T15:28:36;14.00;99.90
8402;DHT22;4238;48.404;9.498;2023-05-07T15:31:03;14.00;99.90
8402;DHT22;4238;48.404;9.498;2023-05-07T15:33:30;14.10;99.90
8402;DHT22;4238;48.404;9.498;2023-05-07T15:35:57;14.20;99.90
8402;DHT22;4238;48.404;9.498;2023-05-07T15:38:25;14.10;99.90
8402;DHT22;4238;48.404;9.498;2023-05-07T15:40:52;14.00;99.90
8402;DHT22;4238;48.404;9.498;2023-05-07T15:43:21;14.20;99.90
8402;DHT22;4238;48.404;9.498;2023-05-07T15:45:48;14.20;99.90
8402;DHT22;4238;48.404;9.498;2023-05-07T15:48:15;14.10;99.90
8402;DHT22;4238;48.404;9.498;2023-05-07T15:50:42;14.10;99.90
8402;DHT22;4238;48.404;9.498;2023-05-07T15:53:09;14.00;99.90
8402;DHT22;4238;48.404;9.498;2023-05-07T15:55:39;14.00;99.90
8402;DHT22;4238;48.404;9.498;2023-05-07T15:58:07;14.00;99.90
8402;DHT22;4238;48.404;9.498;2023-05-07T16:00:36;14.10;99.90
8402;DHT22;4238;48.404;9.498;2023-05-07T16:03:05;14.10;97.50
8402;DHT22;4238;48.404;9.498;2023-05-07T16:05:32;14.20;92.30
8402;DHT22;4238;48.404;9.498;2023-05-07T16:07:59;14.20;93.30
8402;DHT22;4238;48.404;9.498;2023-05-07T16:10:26;14.20;99.90
8402;DHT22;4238;48.404;9.498;2023-05-07T16:12:53;14.40;99.90
8402;DHT22;4238;48.404;9.498;2023-05-07T16:15:20;14.70;79.70
8402;DHT22;4238;48.404;9.498;2023-05-07T16:17:48;14.80;92.50
8402;DHT22;4238;48.404;9.498;2023-05-07T16:20:16;15.00;81.10
8402;DHT22;4238;48.404;9.498;2023-05-07T16:22:46;15.30;94.90
8402;DHT22;4238;48.404;9.498;2023-05-07T16:25:13;15.70;99.90
8402;DHT22;4238;48.404;9.498;2023-05-07T16:27:40;15.90;91.30
8402;DHT22;4238;48.404;9.498;2023-05-07T16:30:07;15.90;60.30
8402;DHT22;4238;48.404;9.498;2023-05-07T16:32:34;16.00;96.90
8402;DHT22;4238;48.404;9.498;2023-05-07T16:35:03;16.00;75.10
8402;DHT22;4238;48.404;9.498;2023-05-07T16:37:32;16.00;86.20
8402;DHT22;4238;48.404;9.498;2023-05-07T16:39:59;16.20;91.50
8402;DHT22;4238;48.404;9.498;2023-05-07T16:42:28;16.30;87.70
8402;DHT22;4238;48.404;9.498;2023-05-07T16:44:54;16.30;91.60
8402;DHT22;4238;48.404;9.498;2023-05-07T16:47:21;16.20;96.80
8402;DHT22;4238;48.404;9.498;2023-05-07T16:49:48;16.00;72.30
8402;DHT22;4238;48.404;9.498;2023-05-07T16:52:16;16.10;99.90
8402;DHT22;4238;48.404;9.498;2023-05-07T16:54:43;16.50;99.90
8402;DHT22;4238;48.404;9.498;2023-05-07T16:57:10;16.70;44.50
8402;DHT22;4238;48.404;9.498;2023-05-07T16:59:37;17.00;41.00
8402;DHT22;4238;48.404;9.498;2023-05-07T17:02:04;17.70;60.60
8402;DHT22;4238;48.404;9.498;2023-05-07T17:04:31;18.00;1.00
8402;DHT22;4238;48.404;9.498;2023-05-07T17:06:58;17.80;13.50
8402;DHT22;4238;48.404;9.498;2023-05-07T17:09:26;17.50;1.00
8402;DHT22;4238;48.404;9.498;2023-05-07T17:11:53;17.10;8.80
8402;DHT22;4238;48.404;9.498;2023-05-07T17:14:20;16.80;12.70
8402;DHT22;4238;48.404;9.498;2023-05-07T17:16:47;16.70;35.50
8402;DHT22;4238;48.404;9.498;2023-05-07T17:19:14;16.40;40.50
8402;DHT22;4238;48.404;9.498;2023-05-07T17:21:41;16.20;50.90
8402;DHT22;4238;48.404;9.498;2023-05-07T17:24:08;16.10;59.70
8402;DHT22;4238;48.404;9.498;2023-05-07T17:26:36;15.80;87.00
8402;DHT22;4238;48.404;9.498;2023-05-07T17:29:03;15.60;95.30
8402;DHT22;4238;48.404;9.498;2023-05-07T17:31:30;15.30;97.70
8402;DHT22;4238;48.404;9.498;2023-05-07T17:33:57;14.90;99.90
8402;DHT22;4238;48.404;9.498;2023-05-07T17:36:24;14.70;99.90
8402;DHT22;4238;48.404;9.498;2023-05-07T17:38:51;14.70;99.90
8402;DHT22;4238;48.404;9.498;2023-05-07T17:41:18;14.80;99.90
8402;DHT22;4238;48.404;9.498;2023-05-07T17:43:47;14.80;99.90
8402;DHT22;4238;48.404;9.498;2023-05-07T17:46:14;14.80;99.90
8402;DHT22;4238;48.404;9.498;2023-05-07T17:48:41;14.80;99.90
8402;DHT22;4238;48.404;9.498;2023-05-07T17:51:08;14.60;99.90
8402;DHT22;4238;48.404;9.498;2023-05-07T17:53:35;14.50;99.90
8402;DHT22;4238;48.404;9.498;2023-05-07T17:56:02;14.50;99.90
8402;DHT22;4238;48.404;9.498;2023-05-07T17:58:29;14.60;99.90
8402;DHT22;4238;48.404;9.498;2023-05-07T18:00:57;14.50;99.90
8402;DHT22;4238;48.404;9.498;2023-05-07T18:03:24;14.40;99.90
8402;DHT22;4238;48.404;9.498;2023-05-07T18:05:52;14.30;99.90
8402;DHT22;4238;48.404;9.498;2023-05-07T18:08:19;14.30;99.90
8402;DHT22;4238;48.404;9.498;2023-05-07T18:10:46;14.30;99.90
8402;DHT22;4238;48.404;9.498;2023-05-07T18:13:13;14.30;99.90
8402;DHT22;4238;48.404;9.498;2023-05-07T18:15:40;14.20;99.90
8402;DHT22;4238;48.404;9.498;2023-05-07T18:18:08;14.10;99.90
8402;DHT22;4238;48.404;9.498;2023-05-07T18:20:36;14.10;99.90
8402;DHT22;4238;48.404;9.498;2023-05-07T18:23:02;14.00;99.90
8402;DHT22;4238;48.404;9.498;2023-05-07T18:25:29;14.00;99.90
8402;DHT22;4238;48.404;9.498;2023-05-07T18:27:57;14.00;99.90
8402;DHT22;4238;48.404;9.498;2023-05-07T18:30:24;14.10;99.90
8402;DHT22;4238;48.404;9.498;2023-05-07T18:32:51;14.10;99.90
8402;DHT22;4238;48.404;9.498;2023-05-07T18:35:19;14.20;99.90
8402;DHT22;4238;48.404;9.498;2023-05-07T18:37:46;14.10;99.90
8402;DHT22;4238;48.404;9.498;2023-05-07T18:40:13;14.10;99.90
8402;DHT22;4238;48.404;9.498;2023-05-07T18:42:40;14.10;99.90
8402;DHT22;4238;48.404;9.498;2023-05-07T18:45:07;14.00;99.90
8402;DHT22;4238;48.404;9.498;2023-05-07T18:47:34;14.00;99.90
8402;DHT22;4238;48.404;9.498;2023-05-07T18:50:01;14.00;99.90
8402;DHT22;4238;48.404;9.498;2023-05-07T18:52:29;14.00;99.90
8402;DHT22;4238;48.404;9.498;2023-05-07T18:54:56;14.10;99.90
8402;DHT22;4238;48.404;9.498;2023-05-07T18:57:23;14.20;99.90
8402;DHT22;4238;48.404;9.498;2023-05-07T18:59:52;14.20;99.90
8402;DHT22;4238;48.404;9.498;2023-05-07T19:02:19;14.20;99.90
8402;DHT22;4238;48.404;9.498;2023-05-07T19:04:46;14.30;99.90
8402;DHT22;4238;48.404;9.498;2023-05-07T19:07:13;14.30;99.90
8402;DHT22;4238;48.404;9.498;2023-05-07T19:09:42;14.30;99.90
8402;DHT22;4238;48.404;9.498;2023-05-07T19:12:08;14.10;99.90
8402;DHT22;4238;48.404;9.498;2023-05-07T19:14:35;14.20;99.90
8402;DHT22;4238;48.404;9.498;2023-05-07T19:17:05;14.20;99.90
8402;DHT22;4238;48.404;9.498;2023-05-07T19:19:32;14.30;99.90
8402;DHT22;4238;48.404;9.498;2023-05-07T19:21:59;14.30;99.90
8402;DHT22;4238;48.404;9.498;2023-05-07T19:24:26;14.20;99.90
8402;DHT22;4238;48.404;9.498;2023-05-07T19:26:54;14.30;99.90
8402;DHT22;4238;48.404;9.498;2023-05-07T19:29:21;14.30;99.90
8402;DHT22;4238;48.404;9.498;2023-05-07T19:31:48;14.30;99.90
8402;DHT22;4238;48.404;9.498;2023-05-07T19:34:15;14.30;99.90
8402;DHT22;4238;48.404;9.498;2023-05-07T19:36:42;14.30;99.90
8402;DHT22;4238;48.404;9.498;2023-05-07T19:39:09;14.20;99.90
8402;DHT22;4238;48.404;9.498;2023-05-07T19:41:36;14.30;99.90
8402;DHT22;4238;48.404;9.498;2023-05-07T19:44:04;14.20;99.90
8402;DHT22;4238;48.404;9.498;2023-05-07T19:46:31;14.20;99.90
8402;DHT22;4238;48.404;9.498;2023-05-07T19:48:58;14.10;99.90
8402;DHT22;4238;48.404;9.498;2023-05-07T19:51:26;14.10;99.90
8402;DHT22;4238;48.404;9.498;2023-05-07T19:53:56;14.10;99.90
8402;DHT22;4238;48.404;9.498;2023-05-07T19:56:24;14.10;99.90
8402;DHT22;4238;48.404;9.498;2023-05-07T19:58:51;14.10;99.90
8402;DHT22;4238;48.404;9.498;2023-05-07T20:01:19;14.10;99.90
8402;DHT22;4238;48.404;9.498;2023-05-07T20:03:46;14.20;99.90
8402;DHT22;4238;48.404;9.498;2023-05-07T20:06:13;14.00;99.90
8402;DHT22;4238;48.404;9.498;2023-05-07T20:08:40;13.90;99.90
8402;DHT22;4238;48.404;9.498;2023-05-07T20:11:09;13.80;99.90
8402;DHT22;4238;48.404;9.498;2023-05-07T20:13:37;13.80;99.90